createdAt,value
2023-01-10T00:00:41.442Z,29.83
2023-01-10T00:03:11.518Z,31.30
2023-01-10T00:05:41.121Z,32.03
2023-01-10T00:08:08.206Z,30.90
2023-01-10T00:10:35.260Z,32.40
2023-01-10T00:13:20.704Z,33.57
2023-01-10T00:15:49.648Z,32.60
2023-01-10T00:18:16.533Z,31.03
2023-01-10T00:20:46.582Z,33.23
2023-01-10T00:23:13.532Z,33.10
2023-01-10T00:25:40.803Z,33.40
2023-01-10T00:28:22.225Z,33.60
2023-01-10T00:30:55.092Z,33.20
2023-01-10T00:33:22.168Z,34.37
2023-01-10T00:35:49.023Z,33.77
2023-01-10T00:38:15.889Z,33.97
2023-01-10T00:40:42.625Z,32.40
2023-01-10T00:43:29.069Z,34.73
2023-01-10T00:45:57.511Z,34.17
2023-01-10T00:48:24.441Z,34.30
2023-01-10T00:50:53.649Z,34.73
2023-01-10T00:53:20.666Z,35.63
2023-01-10T00:55:47.457Z,35.30
2023-01-10T00:58:15.080Z,33.93
2023-01-10T01:00:42.666Z,35.77
2023-01-10T01:03:09.641Z,33.97
2023-01-10T01:05:43.544Z,36.83
2023-01-10T01:08:11.685Z,35.87
2023-01-10T01:10:38.486Z,37.83
2023-01-10T01:13:12.560Z,36.43
2023-01-10T01:15:39.439Z,36.37
2023-01-10T01:18:06.514Z,38.53
2023-01-10T01:20:33.524Z,37.40
2023-01-10T01:23:02.885Z,36.83
2023-01-10T01:25:29.699Z,38.37
2023-01-10T01:27:58.798Z,38.97
2023-01-10T01:30:25.636Z,37.80
2023-01-10T01:32:54.735Z,38.90
2023-01-10T01:35:25.178Z,37.60
2023-01-10T01:37:52.132Z,36.70
2023-01-10T01:40:24.664Z,37.90
2023-01-10T01:42:56.228Z,36.80
2023-01-10T01:45:23.013Z,38.30
2023-01-10T01:48:04.229Z,37.20
2023-01-10T01:51:11.052Z,38.40
2023-01-10T01:53:43.904Z,38.20
2023-01-10T01:56:51.939Z,39.20
2023-01-10T01:59:22.367Z,37.77
2023-01-10T02:01:53.157Z,39.10
2023-01-10T02:04:24.632Z,39.40
2023-01-10T02:06:54.268Z,37.80
2023-01-10T02:09:22.578Z,38.37
2023-01-10T02:11:49.362Z,38.83
2023-01-10T02:14:16.197Z,39.83
2023-01-10T02:16:43.082Z,38.93
2023-01-10T02:19:28.963Z,39.37
2023-01-10T02:22:51.095Z,39.17
2023-01-10T02:26:02.192Z,39.93
2023-01-10T02:28:56.737Z,40.50
2023-01-10T02:32:05.680Z,40.57
2023-01-10T02:35:01.699Z,41.70
2023-01-10T02:37:53.642Z,38.93
2023-01-10T02:40:29.242Z,39.67
2023-01-10T02:43:00.872Z,39.83
2023-01-10T02:45:53.425Z,40.17
2023-01-10T02:48:21.542Z,40.00
2023-01-10T02:51:18.237Z,41.33
2023-01-10T02:53:49.498Z,40.90
2023-01-10T02:56:28.410Z,40.50
2023-01-10T02:59:15.727Z,39.33
2023-01-10T03:02:09.747Z,39.23
2023-01-10T03:04:50.826Z,39.47
2023-01-10T03:07:20.628Z,40.97
2023-01-10T03:09:47.382Z,40.93
2023-01-10T03:12:42.912Z,39.63
2023-01-10T03:15:10.516Z,39.10
2023-01-10T03:17:37.347Z,39.07
2023-01-10T03:20:05.451Z,38.83
2023-01-10T03:22:33.155Z,39.13
2023-01-10T03:25:02.814Z,38.90
2023-01-10T03:28:03.073Z,39.13
2023-01-10T03:30:48.950Z,37.43
2023-01-10T03:33:18.277Z,38.73
2023-01-10T03:36:07.389Z,40.60
2023-01-10T03:38:54.787Z,37.33
2023-01-10T03:41:36.601Z,37.93
2023-01-10T03:44:33.955Z,37.53
2023-01-10T03:47:14.955Z,38.83
2023-01-10T03:49:44.409Z,38.87
2023-01-10T03:52:13.745Z,37.07
2023-01-10T03:54:42.647Z,37.13
2023-01-10T03:57:14.641Z,36.40
2023-01-10T03:59:41.418Z,38.37
2023-01-10T04:02:08.344Z,37.67
2023-01-10T04:04:35.182Z,36.30
2023-01-10T04:07:02.095Z,37.37
2023-01-10T04:09:28.882Z,35.77
2023-01-10T04:11:55.651Z,36.90
2023-01-10T04:14:22.431Z,37.10
2023-01-10T04:16:49.273Z,35.93
2023-01-10T04:19:18.280Z,35.87
2023-01-10T04:21:45.105Z,36.40
2023-01-10T04:24:12.106Z,36.83
2023-01-10T04:26:39.246Z,36.83
2023-01-10T04:29:06.189Z,36.10
2023-01-10T04:31:33.024Z,33.23
2023-01-10T04:34:02.058Z,35.47
2023-01-10T04:36:31.323Z,36.50
2023-01-10T04:38:58.077Z,36.30
2023-01-10T04:41:24.841Z,36.27
2023-01-10T04:43:51.636Z,36.50
2023-01-10T04:46:18.419Z,34.77
2023-01-10T04:48:45.322Z,35.33
2023-01-10T04:51:12.523Z,35.37
2023-01-10T04:53:39.313Z,36.10
2023-01-10T04:56:07.177Z,37.67
2023-01-10T04:58:38.115Z,38.80
2023-01-10T05:01:12.349Z,39.10
2023-01-10T05:03:39.190Z,37.37
2023-01-10T05:06:08.473Z,38.10
2023-01-10T05:08:35.302Z,37.63
2023-01-10T05:11:02.100Z,39.10
2023-01-10T05:13:29.099Z,37.33
2023-01-10T05:15:56.654Z,37.03
2023-01-10T05:18:24.082Z,36.27
2023-01-10T05:20:50.982Z,35.77
2023-01-10T05:23:17.981Z,36.73
2023-01-10T05:25:45.012Z,35.63
2023-01-10T05:28:11.804Z,35.07
2023-01-10T05:30:38.567Z,35.97
2023-01-10T05:33:05.493Z,37.20
2023-01-10T05:35:32.260Z,35.53
2023-01-10T05:37:59.080Z,36.37
2023-01-10T05:40:25.901Z,35.77
2023-01-10T05:42:54.909Z,34.27
2023-01-10T05:45:24.179Z,35.10
2023-01-10T05:47:50.994Z,34.20
2023-01-10T05:50:19.006Z,34.93
2023-01-10T05:52:48.086Z,34.23
2023-01-10T05:55:14.953Z,34.17
2023-01-10T05:57:41.707Z,34.97
2023-01-10T06:00:11.556Z,33.53
2023-01-10T06:02:38.463Z,33.93
2023-01-10T06:05:05.705Z,33.93
2023-01-10T06:07:32.465Z,34.00
2023-01-10T06:09:59.327Z,33.73
2023-01-10T06:12:26.110Z,34.73
2023-01-10T06:14:55.376Z,33.53
2023-01-10T06:17:22.178Z,34.60
2023-01-10T06:19:52.289Z,34.83
2023-01-10T06:22:21.577Z,34.23
2023-01-10T06:24:50.650Z,33.17
2023-01-10T06:27:17.422Z,35.23
2023-01-10T06:29:44.185Z,35.77
2023-01-10T06:32:11.039Z,33.37
2023-01-10T06:34:37.799Z,32.77
2023-01-10T06:37:08.438Z,35.53
2023-01-10T06:39:35.203Z,35.40
2023-01-10T06:42:02.009Z,35.37
2023-01-10T06:44:28.770Z,35.47
2023-01-10T06:46:55.953Z,36.80
2023-01-10T06:49:24.925Z,35.80
2023-01-10T06:51:51.679Z,37.77
2023-01-10T06:54:18.502Z,36.67
2023-01-10T06:56:47.171Z,36.23
2023-01-10T06:59:14.041Z,36.43
2023-01-10T07:01:40.917Z,35.70
2023-01-10T07:04:07.785Z,36.47
2023-01-10T07:06:38.628Z,36.60
2023-01-10T07:09:07.977Z,35.23
2023-01-10T07:11:35.572Z,38.10
2023-01-10T07:14:03.258Z,36.37
2023-01-10T07:16:30.084Z,37.47
2023-01-10T07:18:59.958Z,35.83
2023-01-10T07:21:26.750Z,36.00
2023-01-10T07:23:56.095Z,35.37
2023-01-10T07:26:24.539Z,36.57
2023-01-10T07:28:54.150Z,35.10
2023-01-10T07:31:22.885Z,34.77
2023-01-10T07:33:51.288Z,32.93
2023-01-10T07:36:18.189Z,34.37
2023-01-10T07:38:44.967Z,36.50
2023-01-10T07:41:11.825Z,35.47
2023-01-10T07:43:38.583Z,34.70
2023-01-10T07:46:09.529Z,34.83
2023-01-10T07:48:36.873Z,34.27
2023-01-10T07:51:06.217Z,37.03
2023-01-10T07:53:33.315Z,35.63
2023-01-10T07:56:03.297Z,34.70
2023-01-10T07:58:30.416Z,35.80
2023-01-10T08:00:58.383Z,36.37
2023-01-10T08:03:27.675Z,35.10
2023-01-10T08:05:59.467Z,37.33
2023-01-10T08:08:26.233Z,36.47
2023-01-10T08:10:53.116Z,37.13
2023-01-10T08:13:20.027Z,37.00
2023-01-10T08:15:50.234Z,36.67
2023-01-10T08:18:22.216Z,34.50
2023-01-10T08:20:50.009Z,35.50
2023-01-10T08:23:19.654Z,35.83
2023-01-10T08:25:46.531Z,33.97
2023-01-10T08:28:13.618Z,34.67
2023-01-10T08:30:40.672Z,32.77
2023-01-10T08:33:07.672Z,33.37
2023-01-10T08:35:38.864Z,33.20
2023-01-10T08:38:08.520Z,32.57
2023-01-10T08:40:35.325Z,31.53
2023-01-10T08:43:12.467Z,31.80
2023-01-10T08:45:39.485Z,31.57
2023-01-10T08:48:06.950Z,31.10
2023-01-10T08:50:35.950Z,30.50
2023-01-10T08:53:08.490Z,29.23
2023-01-10T08:55:35.524Z,29.83
2023-01-10T08:58:04.727Z,30.93
2023-01-10T09:00:31.588Z,30.13
2023-01-10T09:02:58.588Z,29.53
2023-01-10T09:05:27.686Z,31.03
2023-01-10T09:07:59.121Z,30.33
2023-01-10T09:10:26.562Z,30.80
2023-01-10T09:12:56.483Z,31.13
2023-01-10T09:15:28.683Z,30.70
2023-01-10T09:17:56.577Z,30.70
2023-01-10T09:20:27.309Z,31.77
2023-01-10T09:22:54.215Z,30.03
2023-01-10T09:25:23.151Z,29.93
2023-01-10T09:27:57.112Z,29.77
2023-01-10T09:30:26.423Z,30.20
2023-01-10T09:32:53.649Z,29.70
2023-01-10T09:35:20.476Z,29.23
2023-01-10T09:37:51.978Z,29.70
2023-01-10T09:40:21.171Z,29.63
2023-01-10T09:43:10.548Z,28.97
2023-01-10T09:45:45.571Z,29.17
2023-01-10T09:48:19.057Z,29.70
2023-01-10T09:51:23.851Z,29.10
2023-01-10T09:53:57.768Z,29.33
2023-01-10T09:56:30.578Z,29.77
2023-01-10T09:59:03.128Z,31.20
2023-01-10T10:01:32.798Z,30.90
2023-01-10T10:04:17.189Z,30.87
2023-01-10T10:06:44.018Z,31.33
2023-01-10T10:09:16.735Z,31.10
2023-01-10T10:12:13.839Z,29.27
2023-01-10T10:14:46.699Z,30.40
2023-01-10T10:17:27.658Z,29.30
2023-01-10T10:20:02.429Z,30.93
2023-01-10T10:22:53.633Z,31.10
2023-01-10T10:25:35.510Z,31.40
2023-01-10T10:28:20.875Z,30.67
2023-01-10T10:31:02.738Z,30.37
2023-01-10T10:33:32.643Z,28.93
2023-01-10T10:36:14.814Z,30.43
2023-01-10T10:38:43.816Z,31.17
2023-01-10T10:41:17.667Z,30.93
2023-01-10T10:43:45.371Z,31.30
2023-01-10T10:46:16.005Z,30.43
2023-01-10T10:48:56.626Z,29.63
2023-01-10T10:51:35.075Z,32.70
2023-01-10T10:54:06.408Z,30.50
2023-01-10T10:56:33.236Z,30.10
2023-01-10T10:59:00.095Z,31.93
2023-01-10T11:01:29.153Z,30.30
2023-01-10T11:04:03.295Z,31.33
2023-01-10T11:06:34.305Z,30.50
2023-01-10T11:09:02.259Z,31.57
2023-01-10T11:11:44.474Z,31.93
2023-01-10T11:14:13.810Z,30.43
2023-01-10T11:16:42.471Z,30.63
2023-01-10T11:19:19.164Z,32.60
2023-01-10T11:21:55.684Z,31.13
2023-01-10T11:24:30.785Z,31.33
2023-01-10T11:26:59.125Z,29.63
2023-01-10T11:29:28.036Z,30.77
2023-01-10T11:31:56.186Z,29.90
2023-01-10T11:34:34.133Z,27.80
2023-01-10T11:37:02.078Z,29.97
2023-01-10T11:39:31.969Z,29.90
2023-01-10T11:42:21.411Z,30.30
2023-01-10T11:44:50.357Z,29.40
2023-01-10T11:47:22.159Z,29.70
2023-01-10T11:49:49.221Z,29.70
2023-01-10T11:52:29.683Z,30.43
2023-01-10T11:55:00.353Z,28.93
2023-01-10T11:57:28.600Z,29.43
2023-01-10T12:00:02.202Z,29.03
2023-01-10T12:02:36.901Z,28.73
2023-01-10T12:05:09.547Z,28.30
2023-01-10T12:08:06.642Z,28.63
2023-01-10T12:10:34.025Z,28.07
2023-01-10T12:13:14.798Z,26.70
2023-01-10T12:15:41.813Z,26.67
2023-01-10T12:18:13.357Z,26.20
2023-01-10T12:20:51.060Z,25.80
2023-01-10T12:23:20.913Z,25.73
2023-01-10T12:25:47.709Z,26.73
2023-01-10T12:28:27.395Z,26.27
2023-01-10T12:31:00.426Z,27.20
2023-01-10T12:33:46.886Z,25.27
2023-01-10T12:36:45.330Z,24.00
2023-01-10T12:39:16.569Z,23.63
2023-01-10T12:42:09.277Z,23.70
2023-01-10T12:44:46.420Z,23.67
2023-01-10T12:47:25.052Z,25.03
2023-01-10T12:49:59.891Z,25.23
2023-01-10T12:52:56.403Z,26.20
2023-01-10T12:55:27.767Z,25.90
2023-01-10T12:57:58.718Z,26.33
2023-01-10T13:00:37.689Z,26.67
2023-01-10T13:03:23.346Z,25.50
2023-01-10T13:05:53.214Z,27.13
2023-01-10T13:08:23.116Z,27.33
2023-01-10T13:10:52.263Z,25.87
2023-01-10T13:13:35.368Z,25.57
2023-01-10T13:16:17.237Z,26.80
2023-01-10T13:19:02.559Z,25.93
2023-01-10T13:21:30.347Z,24.23
2023-01-10T13:24:05.290Z,23.87
2023-01-10T13:26:56.596Z,23.60
2023-01-10T13:29:30.562Z,24.93
2023-01-10T13:32:01.661Z,25.30
2023-01-10T13:34:33.813Z,25.10
2023-01-10T13:37:01.701Z,26.73
2023-01-10T13:39:46.099Z,26.37
2023-01-10T13:42:46.004Z,26.37
2023-01-10T13:45:13.570Z,26.77
2023-01-10T13:47:40.535Z,26.07
2023-01-10T13:50:36.377Z,26.60
2023-01-10T13:53:04.266Z,26.00
2023-01-10T13:55:53.986Z,28.00
2023-01-10T13:58:58.987Z,27.03
2023-01-10T14:01:47.809Z,26.30
2023-01-10T14:04:25.909Z,26.80
2023-01-10T14:07:18.756Z,26.17
2023-01-10T14:09:46.153Z,25.53
2023-01-10T14:12:17.800Z,25.50
2023-01-10T14:14:50.825Z,25.87
2023-01-10T14:17:31.349Z,24.47
2023-01-10T14:20:18.356Z,24.27
2023-01-10T14:22:59.527Z,24.60
2023-01-10T14:25:26.628Z,24.53
2023-01-10T14:27:53.455Z,24.43
2023-01-10T14:30:32.901Z,24.77
2023-01-10T14:33:16.107Z,24.80
2023-01-10T14:35:47.879Z,23.40
2023-01-10T14:38:24.445Z,22.73
2023-01-10T14:40:52.827Z,21.57
2023-01-10T14:43:20.593Z,21.93
2023-01-10T14:46:04.656Z,21.13
2023-01-10T14:48:39.702Z,21.53
2023-01-10T14:51:21.740Z,20.60
2023-01-10T14:54:12.471Z,20.63
2023-01-10T14:56:41.058Z,20.03
2023-01-10T14:59:24.199Z,20.23
2023-01-10T15:01:52.051Z,19.47
2023-01-10T15:04:20.568Z,17.57
2023-01-10T15:06:54.413Z,18.87
2023-01-10T15:09:24.183Z,18.73
2023-01-10T15:11:51.330Z,17.93
2023-01-10T15:14:18.856Z,17.30
2023-01-10T15:16:45.800Z,18.53
2023-01-10T15:19:18.069Z,18.10
2023-01-10T15:21:45.636Z,19.13
2023-01-10T15:24:35.235Z,17.80
2023-01-10T15:27:08.749Z,18.63
2023-01-10T15:29:44.470Z,18.30
2023-01-10T15:32:16.602Z,19.07
2023-01-10T15:34:43.429Z,18.97
2023-01-10T15:37:18.817Z,19.23
2023-01-10T15:39:45.940Z,19.80
2023-01-10T15:42:12.800Z,19.80
2023-01-10T15:44:45.185Z,19.77
2023-01-10T15:47:35.162Z,21.20
2023-01-10T15:50:15.437Z,20.80
2023-01-10T15:52:53.591Z,21.20
2023-01-10T15:55:40.885Z,22.53
2023-01-10T15:58:20.200Z,21.70
2023-01-10T16:00:47.748Z,23.07
2023-01-10T16:03:25.044Z,23.13
2023-01-10T16:05:55.360Z,23.97
2023-01-10T16:08:25.021Z,22.87
2023-01-10T16:10:55.945Z,22.80
2023-01-10T16:13:31.730Z,23.80
2023-01-10T16:15:59.529Z,23.10
2023-01-10T16:18:31.044Z,22.13
2023-01-10T16:20:59.590Z,22.47
2023-01-10T16:23:27.586Z,21.87
2023-01-10T16:25:56.259Z,21.47
2023-01-10T16:28:27.427Z,23.23
2023-01-10T16:30:54.288Z,22.83
2023-01-10T16:33:24.235Z,22.77
2023-01-10T16:35:52.713Z,22.47
2023-01-10T16:38:22.213Z,22.93
2023-01-10T16:40:57.148Z,23.60
2023-01-10T16:43:26.804Z,22.57
2023-01-10T16:46:00.910Z,23.23
2023-01-10T16:48:28.759Z,23.40
2023-01-10T16:50:55.729Z,22.83
2023-01-10T16:53:22.537Z,22.90
2023-01-10T16:55:54.925Z,23.20
2023-01-10T16:58:24.034Z,22.20
2023-01-10T17:00:54.039Z,24.10
2023-01-10T17:03:24.773Z,23.43
2023-01-10T17:05:51.647Z,23.63
2023-01-10T17:08:20.409Z,22.43
2023-01-10T17:11:00.596Z,23.43
2023-01-10T17:13:29.555Z,23.30
2023-01-10T17:15:58.629Z,23.03
2023-01-10T17:18:28.571Z,23.47
2023-01-10T17:20:57.143Z,23.70
2023-01-10T17:23:24.799Z,23.27
2023-01-10T17:25:57.988Z,22.73
2023-01-10T17:28:24.843Z,24.77
2023-01-10T17:30:54.256Z,23.77
2023-01-10T17:33:21.071Z,25.10
2023-01-10T17:35:53.129Z,25.63
2023-01-10T17:38:22.247Z,24.00
2023-01-10T17:40:50.412Z,23.20
2023-01-10T17:43:20.029Z,23.27
2023-01-10T17:45:49.233Z,22.10
2023-01-10T17:48:16.667Z,23.33
2023-01-10T17:50:44.431Z,22.83
2023-01-10T17:53:11.472Z,23.10
2023-01-10T17:55:46.891Z,23.13
2023-01-10T17:58:14.150Z,22.03
2023-01-10T18:00:41.098Z,22.67
2023-01-10T18:03:10.478Z,23.00
2023-01-10T18:05:37.497Z,22.40
2023-01-10T18:08:08.012Z,21.83
2023-01-10T18:10:35.091Z,22.63
2023-01-10T18:13:03.451Z,22.10
2023-01-10T18:15:30.613Z,21.90
2023-01-10T18:17:57.979Z,21.13
2023-01-10T18:20:24.974Z,21.53
2023-01-10T18:23:10.477Z,20.53
2023-01-10T18:25:37.277Z,20.80
2023-01-10T18:28:06.409Z,20.53
2023-01-10T18:30:35.544Z,19.43
2023-01-10T18:33:06.107Z,20.00
2023-01-10T18:35:35.458Z,20.43
2023-01-10T18:38:04.764Z,19.23
2023-01-10T18:40:33.844Z,20.57
2023-01-10T18:43:00.619Z,20.00
2023-01-10T18:45:30.553Z,19.90
2023-01-10T18:47:59.115Z,21.63
2023-01-10T18:50:26.543Z,23.33
2023-01-10T18:52:53.329Z,21.93
2023-01-10T18:55:20.177Z,23.10
2023-01-10T18:57:47.066Z,22.10
2023-01-10T19:00:14.318Z,23.00
2023-01-10T19:02:41.168Z,22.23
2023-01-10T19:05:09.863Z,23.73
2023-01-10T19:07:39.524Z,22.63
2023-01-10T19:10:06.780Z,22.70
2023-01-10T19:12:33.577Z,23.10
2023-01-10T19:15:02.509Z,23.30
2023-01-10T19:17:31.847Z,24.17
2023-01-10T19:20:00.774Z,22.33
2023-01-10T19:22:30.208Z,24.17
2023-01-10T19:24:57.036Z,23.13
2023-01-10T19:27:23.815Z,22.80
2023-01-10T19:29:52.906Z,21.83
2023-01-10T19:32:19.734Z,22.50
2023-01-10T19:34:46.624Z,21.63
2023-01-10T19:37:18.427Z,22.63
2023-01-10T19:39:45.352Z,22.93
2023-01-10T19:42:12.290Z,23.03
2023-01-10T19:44:42.373Z,20.87
2023-01-10T19:47:11.550Z,21.67
2023-01-10T19:49:40.595Z,21.30
2023-01-10T19:52:07.535Z,22.83
2023-01-10T19:54:34.601Z,21.40
2023-01-10T19:57:01.434Z,21.10
2023-01-10T19:59:28.743Z,21.50
2023-01-10T20:01:55.684Z,21.53
2023-01-10T20:04:27.154Z,24.43
2023-01-10T20:06:54.036Z,24.67
2023-01-10T20:09:20.869Z,23.07
2023-01-10T20:11:47.709Z,24.33
2023-01-10T20:14:19.070Z,26.47
2023-01-10T20:16:48.902Z,26.27
2023-01-10T20:19:17.974Z,26.63
2023-01-10T20:21:44.895Z,27.03
2023-01-10T20:24:13.116Z,27.37
2023-01-10T20:26:39.993Z,26.23
2023-01-10T20:29:09.043Z,27.97
2023-01-10T20:31:36.053Z,28.13
2023-01-10T20:34:08.020Z,28.90
2023-01-10T20:36:34.957Z,28.40
2023-01-10T20:39:04.225Z,29.43
2023-01-10T20:41:31.189Z,29.50
2023-01-10T20:43:58.203Z,30.63
2023-01-10T20:46:31.755Z,30.27
2023-01-10T20:49:01.399Z,31.47
2023-01-10T20:51:32.920Z,32.27
2023-01-10T20:53:59.851Z,33.27
2023-01-10T20:56:28.374Z,36.80
2023-01-10T20:58:55.978Z,38.63
2023-01-10T21:01:33.459Z,38.43
2023-01-10T21:04:01.064Z,39.73
2023-01-10T21:06:28.108Z,39.40
2023-01-10T21:08:55.045Z,39.33
2023-01-10T21:11:21.897Z,38.43
2023-01-10T21:13:48.748Z,36.63
2023-01-10T21:16:17.225Z,37.07
2023-01-10T21:18:44.965Z,36.47
2023-01-10T21:21:13.214Z,37.10
2023-01-10T21:23:40.153Z,33.70
2023-01-10T21:26:14.585Z,33.63
2023-01-10T21:28:42.965Z,33.10
2023-01-10T21:31:12.537Z,34.07
2023-01-10T21:33:39.351Z,31.03
2023-01-10T21:36:06.541Z,33.53
2023-01-10T21:38:40.528Z,33.90
2023-01-10T21:41:07.408Z,33.37
2023-01-10T21:43:36.383Z,32.93
2023-01-10T21:46:05.683Z,32.97
2023-01-10T21:48:32.893Z,32.40
2023-01-10T21:50:59.698Z,32.57
2023-01-10T21:53:26.476Z,31.90
2023-01-10T21:55:56.523Z,30.43
2023-01-10T21:58:25.740Z,32.50
2023-01-10T22:01:01.405Z,32.57
2023-01-10T22:03:31.364Z,32.20
2023-01-10T22:06:00.253Z,32.93
2023-01-10T22:08:27.062Z,32.47
2023-01-10T22:10:53.835Z,31.97
2023-01-10T22:13:20.656Z,32.90
2023-01-10T22:15:48.155Z,30.33
2023-01-10T22:18:14.992Z,30.33
2023-01-10T22:20:44.673Z,29.30
2023-01-10T22:23:13.595Z,29.80
2023-01-10T22:25:40.388Z,29.90
2023-01-10T22:28:07.169Z,29.43
2023-01-10T22:30:36.216Z,25.73
2023-01-10T22:33:08.845Z,25.77
2023-01-10T22:35:37.980Z,23.80
2023-01-10T22:38:04.798Z,24.83
2023-01-10T22:40:31.577Z,23.13
2023-01-10T22:42:58.339Z,25.83
2023-01-10T22:45:25.197Z,23.60
2023-01-10T22:47:51.983Z,25.23
2023-01-10T22:50:18.924Z,24.40
2023-01-10T22:52:50.366Z,25.27
2023-01-10T22:55:22.647Z,26.17
2023-01-10T22:57:49.395Z,26.87
2023-01-10T23:00:18.006Z,27.53
2023-01-10T23:02:47.059Z,26.40
2023-01-10T23:05:13.926Z,27.60
2023-01-10T23:07:43.206Z,27.80
2023-01-10T23:10:28.777Z,26.97
2023-01-10T23:12:56.344Z,28.27
2023-01-10T23:15:25.684Z,28.17
2023-01-10T23:17:52.456Z,28.07
2023-01-10T23:20:21.471Z,30.40
2023-01-10T23:22:48.279Z,30.30
2023-01-10T23:25:15.128Z,30.10
2023-01-10T23:27:46.646Z,31.50
2023-01-10T23:30:15.940Z,30.60
2023-01-10T23:32:42.755Z,32.47
2023-01-10T23:35:09.718Z,32.57
2023-01-10T23:37:41.145Z,31.57
2023-01-10T23:40:11.129Z,32.20
2023-01-10T23:42:37.948Z,30.90
2023-01-10T23:45:05.236Z,30.27
2023-01-10T23:47:32.026Z,31.03
2023-01-10T23:49:59.177Z,32.77
2023-01-10T23:52:25.976Z,33.40
2023-01-10T23:54:53.485Z,34.40
2023-01-10T23:57:20.799Z,34.73
2023-01-10T23:59:47.546Z,34.43
